Weather at Sault Ste Marie Municipal Sanderson Field

Public forecast

Using degrees Fahrenheit for public forecast. Weather courtesy of forecast.io.

Current aviation weather report (METAR) for Sault Ste Marie Municipal Sanderson Field

Retrieved 2021/08/01 01:35 UTC (13 minutes ago):

KANJ 010135Z AUTO 32008KT 10SM BKN012 OVC020 17/14 A2988

Closest aviation forecast (TAF) to Sault Ste Marie Municipal Sanderson Field

Closest forecast is Sault Ste Marie Airport, 5.8 nm (10.8 km) W. Retrieved 2021-08-01 02:45 UTC (0 seconds ago):

TAF TAF CYAM 010142Z 0102/0114 32008KT P6SM SCT008 BKN015 OVC040 TEMPO 0102/0112 5SM -SHRA BR BKN008 OVC015 PROB30 0105/0112 2SM TSRA BR OVC005CB FM011200 36012KT P6SM -SHRA BKN015 OVC050 RMK NXT FCST BY 010800Z